sensor_id;sensor_type;location;lat;lon;timestamp;P1;durP1;ratioP1;P2;durP2;ratioP2
28760;SDS011;15917;50.014;8.352;2022-08-21T00:00:50;7.78;;;2.30;;
28760;SDS011;15917;50.014;8.352;2022-08-21T00:03:16;7.90;;;2.70;;
28760;SDS011;15917;50.014;8.352;2022-08-21T00:05:47;8.45;;;2.70;;
28760;SDS011;15917;50.014;8.352;2022-08-21T00:08:15;10.02;;;2.75;;
28760;SDS011;15917;50.014;8.352;2022-08-21T00:10:42;10.38;;;2.38;;
28760;SDS011;15917;50.014;8.352;2022-08-21T00:13:09;6.50;;;2.20;;
28760;SDS011;15917;50.014;8.352;2022-08-21T00:15:36;11.38;;;2.60;;
28760;SDS011;15917;50.014;8.352;2022-08-21T00:18:04;12.55;;;3.30;;
28760;SDS011;15917;50.014;8.352;2022-08-21T00:20:31;7.65;;;2.45;;
28760;SDS011;15917;50.014;8.352;2022-08-21T00:22:57;7.10;;;2.80;;
28760;SDS011;15917;50.014;8.352;2022-08-21T00:25:23;9.07;;;2.83;;
28760;SDS011;15917;50.014;8.352;2022-08-21T00:27:48;6.32;;;2.53;;
28760;SDS011;15917;50.014;8.352;2022-08-21T00:30:15;6.68;;;2.03;;
28760;SDS011;15917;50.014;8.352;2022-08-21T00:32:42;8.30;;;2.40;;
28760;SDS011;15917;50.014;8.352;2022-08-21T00:35:11;8.98;;;2.60;;
28760;SDS011;15917;50.014;8.352;2022-08-21T00:37:39;8.48;;;3.05;;
28760;SDS011;15917;50.014;8.352;2022-08-21T00:40:06;6.75;;;2.72;;
28760;SDS011;15917;50.014;8.352;2022-08-21T00:42:35;4.60;;;2.35;;
28760;SDS011;15917;50.014;8.352;2022-08-21T00:45:00;10.63;;;2.55;;
28760;SDS011;15917;50.014;8.352;2022-08-21T00:47:27;8.65;;;2.92;;
28760;SDS011;15917;50.014;8.352;2022-08-21T00:49:53;7.90;;;3.00;;
28760;SDS011;15917;50.014;8.352;2022-08-21T00:52:19;8.57;;;2.55;;
28760;SDS011;15917;50.014;8.352;2022-08-21T00:54:48;10.32;;;2.53;;
28760;SDS011;15917;50.014;8.352;2022-08-21T00:57:16;7.00;;;2.58;;
28760;SDS011;15917;50.014;8.352;2022-08-21T00:59:45;9.00;;;2.60;;
28760;SDS011;15917;50.014;8.352;2022-08-21T01:02:13;11.30;;;3.20;;
28760;SDS011;15917;50.014;8.352;2022-08-21T01:04:40;8.67;;;2.20;;
28760;SDS011;15917;50.014;8.352;2022-08-21T01:07:06;6.30;;;2.17;;
28760;SDS011;15917;50.014;8.352;2022-08-21T01:09:32;7.90;;;2.78;;
28760;SDS011;15917;50.014;8.352;2022-08-21T01:11:58;11.55;;;2.53;;
28760;SDS011;15917;50.014;8.352;2022-08-21T01:14:24;9.05;;;3.05;;
28760;SDS011;15917;50.014;8.352;2022-08-21T01:16:50;13.82;;;2.60;;
28760;SDS011;15917;50.014;8.352;2022-08-21T01:19:18;8.25;;;2.40;;
28760;SDS011;15917;50.014;8.352;2022-08-21T01:21:46;5.65;;;2.22;;
28760;SDS011;15917;50.014;8.352;2022-08-21T01:24:12;14.75;;;2.72;;
28760;SDS011;15917;50.014;8.352;2022-08-21T01:26:38;8.52;;;2.53;;
28760;SDS011;15917;50.014;8.352;2022-08-21T01:29:07;13.35;;;2.83;;
28760;SDS011;15917;50.014;8.352;2022-08-21T01:31:55;14.45;;;2.67;;
28760;SDS011;15917;50.014;8.352;2022-08-21T01:34:21;11.30;;;3.00;;
28760;SDS011;15917;50.014;8.352;2022-08-21T01:36:47;9.05;;;2.83;;
28760;SDS011;15917;50.014;8.352;2022-08-21T01:39:13;5.88;;;2.17;;
28760;SDS011;15917;50.014;8.352;2022-08-21T01:41:40;7.45;;;2.72;;
28760;SDS011;15917;50.014;8.352;2022-08-21T01:44:06;7.30;;;2.75;;
28760;SDS011;15917;50.014;8.352;2022-08-21T01:46:32;8.23;;;2.92;;
28760;SDS011;15917;50.014;8.352;2022-08-21T01:48:58;7.45;;;2.30;;
28760;SDS011;15917;50.014;8.352;2022-08-21T01:51:24;8.52;;;2.47;;
28760;SDS011;15917;50.014;8.352;2022-08-21T01:53:49;10.55;;;2.90;;
28760;SDS011;15917;50.014;8.352;2022-08-21T01:56:16;13.93;;;2.67;;
28760;SDS011;15917;50.014;8.352;2022-08-21T01:58:43;10.20;;;2.75;;
28760;SDS011;15917;50.014;8.352;2022-08-21T02:01:11;4.65;;;2.65;;
28760;SDS011;15917;50.014;8.352;2022-08-21T02:03:38;11.73;;;3.25;;
28760;SDS011;15917;50.014;8.352;2022-08-21T02:06:04;6.70;;;2.30;;
28760;SDS011;15917;50.014;8.352;2022-08-21T02:10:57;10.65;;;3.13;;
28760;SDS011;15917;50.014;8.352;2022-08-21T02:13:23;13.63;;;3.15;;
28760;SDS011;15917;50.014;8.352;2022-08-21T02:15:49;8.23;;;2.90;;
28760;SDS011;15917;50.014;8.352;2022-08-21T02:18:15;9.07;;;2.72;;
28760;SDS011;15917;50.014;8.352;2022-08-21T02:20:43;5.68;;;2.38;;
28760;SDS011;15917;50.014;8.352;2022-08-21T02:23:11;11.02;;;2.38;;
28760;SDS011;15917;50.014;8.352;2022-08-21T02:25:37;6.03;;;2.60;;
28760;SDS011;15917;50.014;8.352;2022-08-21T02:28:04;4.63;;;1.92;;
28760;SDS011;15917;50.014;8.352;2022-08-21T02:30:34;8.23;;;2.53;;
28760;SDS011;15917;50.014;8.352;2022-08-21T02:33:03;6.80;;;2.60;;
28760;SDS011;15917;50.014;8.352;2022-08-21T02:35:29;7.78;;;2.63;;
28760;SDS011;15917;50.014;8.352;2022-08-21T02:37:59;7.75;;;2.45;;
28760;SDS011;15917;50.014;8.352;2022-08-21T02:40:28;7.45;;;2.22;;
28760;SDS011;15917;50.014;8.352;2022-08-21T02:42:56;6.90;;;2.50;;
28760;SDS011;15917;50.014;8.352;2022-08-21T02:45:23;10.70;;;2.35;;
28760;SDS011;15917;50.014;8.352;2022-08-21T02:47:50;10.25;;;3.30;;
28760;SDS011;15917;50.014;8.352;2022-08-21T02:50:18;8.02;;;2.47;;
28760;SDS011;15917;50.014;8.352;2022-08-21T02:52:46;5.60;;;2.38;;
28760;SDS011;15917;50.014;8.352;2022-08-21T02:55:12;7.32;;;2.33;;
28760;SDS011;15917;50.014;8.352;2022-08-21T02:57:38;10.68;;;3.08;;
28760;SDS011;15917;50.014;8.352;2022-08-21T03:00:04;7.95;;;2.65;;
28760;SDS011;15917;50.014;8.352;2022-08-21T03:02:31;7.13;;;2.63;;
28760;SDS011;15917;50.014;8.352;2022-08-21T03:04:57;9.27;;;2.78;;
28760;SDS011;15917;50.014;8.352;2022-08-21T03:07:22;5.57;;;2.47;;
28760;SDS011;15917;50.014;8.352;2022-08-21T03:09:48;6.13;;;2.53;;
28760;SDS011;15917;50.014;8.352;2022-08-21T03:12:14;7.78;;;2.58;;
28760;SDS011;15917;50.014;8.352;2022-08-21T03:14:39;7.68;;;2.47;;
28760;SDS011;15917;50.014;8.352;2022-08-21T03:17:05;11.77;;;2.63;;
28760;SDS011;15917;50.014;8.352;2022-08-21T03:19:32;9.60;;;3.42;;
28760;SDS011;15917;50.014;8.352;2022-08-21T03:21:57;8.80;;;2.85;;
28760;SDS011;15917;50.014;8.352;2022-08-21T03:24:23;8.25;;;2.92;;
28760;SDS011;15917;50.014;8.352;2022-08-21T03:26:49;6.38;;;2.47;;
28760;SDS011;15917;50.014;8.352;2022-08-21T03:29:15;14.15;;;2.70;;
28760;SDS011;15917;50.014;8.352;2022-08-21T03:31:40;9.50;;;2.70;;
28760;SDS011;15917;50.014;8.352;2022-08-21T03:34:06;7.45;;;2.60;;
28760;SDS011;15917;50.014;8.352;2022-08-21T03:36:32;12.73;;;2.97;;
28760;SDS011;15917;50.014;8.352;2022-08-21T03:38:57;11.57;;;3.00;;
28760;SDS011;15917;50.014;8.352;2022-08-21T03:41:23;6.68;;;2.78;;
28760;SDS011;15917;50.014;8.352;2022-08-21T03:43:49;7.53;;;3.38;;
28760;SDS011;15917;50.014;8.352;2022-08-21T03:46:14;15.00;;;3.30;;
28760;SDS011;15917;50.014;8.352;2022-08-21T03:48:40;9.20;;;2.97;;
28760;SDS011;15917;50.014;8.352;2022-08-21T03:51:06;15.73;;;3.53;;
28760;SDS011;15917;50.014;8.352;2022-08-21T03:53:32;10.75;;;3.08;;
28760;SDS011;15917;50.014;8.352;2022-08-21T03:55:58;10.98;;;3.42;;
28760;SDS011;15917;50.014;8.352;2022-08-21T03:58:24;7.68;;;2.53;;
28760;SDS011;15917;50.014;8.352;2022-08-21T04:00:52;9.45;;;3.08;;
28760;SDS011;15917;50.014;8.352;2022-08-21T04:03:19;8.80;;;3.00;;
28760;SDS011;15917;50.014;8.352;2022-08-21T04:05:45;7.45;;;2.58;;
28760;SDS011;15917;50.014;8.352;2022-08-21T04:08:11;13.10;;;2.95;;
28760;SDS011;15917;50.014;8.352;2022-08-21T04:10:38;10.98;;;3.15;;
28760;SDS011;15917;50.014;8.352;2022-08-21T04:13:06;12.05;;;3.65;;
28760;SDS011;15917;50.014;8.352;2022-08-21T04:15:32;10.57;;;3.00;;
28760;SDS011;15917;50.014;8.352;2022-08-21T04:17:58;11.50;;;2.80;;
28760;SDS011;15917;50.014;8.352;2022-08-21T04:20:24;6.88;;;2.55;;
28760;SDS011;15917;50.014;8.352;2022-08-21T04:22:51;12.27;;;3.13;;
28760;SDS011;15917;50.014;8.352;2022-08-21T04:25:18;9.10;;;3.08;;
28760;SDS011;15917;50.014;8.352;2022-08-21T04:27:45;13.60;;;3.42;;
28760;SDS011;15917;50.014;8.352;2022-08-21T04:30:12;12.15;;;2.78;;
28760;SDS011;15917;50.014;8.352;2022-08-21T04:35:07;7.78;;;2.92;;
28760;SDS011;15917;50.014;8.352;2022-08-21T04:40:01;8.73;;;3.15;;
28760;SDS011;15917;50.014;8.352;2022-08-21T04:42:27;12.25;;;2.72;;
28760;SDS011;15917;50.014;8.352;2022-08-21T04:44:54;11.52;;;2.83;;
28760;SDS011;15917;50.014;8.352;2022-08-21T04:47:20;7.80;;;2.83;;
28760;SDS011;15917;50.014;8.352;2022-08-21T04:49:46;9.63;;;3.33;;
28760;SDS011;15917;50.014;8.352;2022-08-21T04:52:13;10.68;;;2.63;;
28760;SDS011;15917;50.014;8.352;2022-08-21T04:54:42;6.97;;;2.42;;
28760;SDS011;15917;50.014;8.352;2022-08-21T04:59:41;7.88;;;3.03;;
28760;SDS011;15917;50.014;8.352;2022-08-21T05:02:09;7.90;;;2.83;;
28760;SDS011;15917;50.014;8.352;2022-08-21T05:04:36;9.20;;;3.55;;
28760;SDS011;15917;50.014;8.352;2022-08-21T05:07:06;5.60;;;2.95;;
28760;SDS011;15917;50.014;8.352;2022-08-21T05:09:37;9.00;;;2.70;;
28760;SDS011;15917;50.014;8.352;2022-08-21T05:12:03;7.47;;;3.10;;
28760;SDS011;15917;50.014;8.352;2022-08-21T05:14:29;8.95;;;3.05;;
28760;SDS011;15917;50.014;8.352;2022-08-21T05:16:55;8.60;;;3.35;;
28760;SDS011;15917;50.014;8.352;2022-08-21T05:19:21;11.88;;;2.97;;
28760;SDS011;15917;50.014;8.352;2022-08-21T05:21:48;11.10;;;2.97;;
28760;SDS011;15917;50.014;8.352;2022-08-21T05:24:14;9.52;;;2.78;;
28760;SDS011;15917;50.014;8.352;2022-08-21T05:26:40;11.63;;;3.33;;
28760;SDS011;15917;50.014;8.352;2022-08-21T05:29:06;15.18;;;3.33;;
28760;SDS011;15917;50.014;8.352;2022-08-21T05:31:32;6.15;;;2.90;;
28760;SDS011;15917;50.014;8.352;2022-08-21T05:33:58;8.48;;;2.58;;
28760;SDS011;15917;50.014;8.352;2022-08-21T05:36:23;14.73;;;3.50;;
28760;SDS011;15917;50.014;8.352;2022-08-21T05:38:49;7.78;;;2.65;;
28760;SDS011;15917;50.014;8.352;2022-08-21T05:41:15;9.15;;;2.60;;
28760;SDS011;15917;50.014;8.352;2022-08-21T05:43:41;11.93;;;3.05;;
28760;SDS011;15917;50.014;8.352;2022-08-21T05:46:07;8.80;;;3.05;;
28760;SDS011;15917;50.014;8.352;2022-08-21T05:48:33;8.73;;;3.15;;
28760;SDS011;15917;50.014;8.352;2022-08-21T05:51:04;9.70;;;3.10;;
28760;SDS011;15917;50.014;8.352;2022-08-21T05:53:34;8.38;;;3.17;;
28760;SDS011;15917;50.014;8.352;2022-08-21T05:56:00;4.78;;;2.88;;
28760;SDS011;15917;50.014;8.352;2022-08-21T06:00:54;14.48;;;3.35;;
28760;SDS011;15917;50.014;8.352;2022-08-21T06:03:22;12.10;;;3.05;;
28760;SDS011;15917;50.014;8.352;2022-08-21T06:05:50;12.07;;;3.50;;
28760;SDS011;15917;50.014;8.352;2022-08-21T06:08:16;10.70;;;3.17;;
28760;SDS011;15917;50.014;8.352;2022-08-21T06:10:43;26.85;;;3.45;;
28760;SDS011;15917;50.014;8.352;2022-08-21T06:13:10;11.20;;;2.97;;
28760;SDS011;15917;50.014;8.352;2022-08-21T06:15:36;11.15;;;3.28;;
28760;SDS011;15917;50.014;8.352;2022-08-21T06:18:01;12.00;;;3.50;;
28760;SDS011;15917;50.014;8.352;2022-08-21T06:20:27;14.02;;;3.15;;
28760;SDS011;15917;50.014;8.352;2022-08-21T06:22:53;11.18;;;3.30;;
28760;SDS011;15917;50.014;8.352;2022-08-21T06:25:19;12.32;;;3.58;;
28760;SDS011;15917;50.014;8.352;2022-08-21T06:27:45;13.80;;;3.03;;
28760;SDS011;15917;50.014;8.352;2022-08-21T06:30:11;9.32;;;3.28;;
28760;SDS011;15917;50.014;8.352;2022-08-21T06:32:37;12.13;;;3.20;;
28760;SDS011;15917;50.014;8.352;2022-08-21T06:35:03;7.93;;;3.05;;
28760;SDS011;15917;50.014;8.352;2022-08-21T06:37:29;21.40;;;3.40;;
28760;SDS011;15917;50.014;8.352;2022-08-21T06:39:55;11.82;;;2.83;;
28760;SDS011;15917;50.014;8.352;2022-08-21T06:42:21;8.80;;;2.78;;
28760;SDS011;15917;50.014;8.352;2022-08-21T06:44:47;10.43;;;2.92;;
28760;SDS011;15917;50.014;8.352;2022-08-21T06:47:13;18.13;;;3.47;;
28760;SDS011;15917;50.014;8.352;2022-08-21T06:49:39;12.65;;;3.70;;
28760;SDS011;15917;50.014;8.352;2022-08-21T06:52:09;7.72;;;3.28;;
28760;SDS011;15917;50.014;8.352;2022-08-21T06:54:35;17.40;;;3.70;;
28760;SDS011;15917;50.014;8.352;2022-08-21T06:57:01;10.55;;;3.30;;
28760;SDS011;15917;50.014;8.352;2022-08-21T06:59:27;7.57;;;2.90;;
28760;SDS011;15917;50.014;8.352;2022-08-21T07:01:52;15.63;;;3.40;;
28760;SDS011;15917;50.014;8.352;2022-08-21T07:04:18;12.88;;;3.22;;
28760;SDS011;15917;50.014;8.352;2022-08-21T07:06:45;11.63;;;3.42;;
28760;SDS011;15917;50.014;8.352;2022-08-21T07:09:10;8.75;;;3.20;;
28760;SDS011;15917;50.014;8.352;2022-08-21T07:11:36;11.60;;;3.50;;
28760;SDS011;15917;50.014;8.352;2022-08-21T07:14:02;15.23;;;4.05;;
28760;SDS011;15917;50.014;8.352;2022-08-21T07:16:29;9.43;;;3.03;;
28760;SDS011;15917;50.014;8.352;2022-08-21T07:18:54;8.40;;;3.30;;
28760;SDS011;15917;50.014;8.352;2022-08-21T07:21:20;10.68;;;3.03;;
28760;SDS011;15917;50.014;8.352;2022-08-21T07:23:47;11.60;;;3.65;;
28760;SDS011;15917;50.014;8.352;2022-08-21T07:26:16;13.57;;;4.65;;
28760;SDS011;15917;50.014;8.352;2022-08-21T07:28:44;9.00;;;4.15;;
28760;SDS011;15917;50.014;8.352;2022-08-21T07:31:10;15.13;;;3.55;;
28760;SDS011;15917;50.014;8.352;2022-08-21T07:33:38;8.05;;;3.95;;
28760;SDS011;15917;50.014;8.352;2022-08-21T07:36:04;9.50;;;3.25;;
28760;SDS011;15917;50.014;8.352;2022-08-21T07:38:30;14.85;;;4.13;;
28760;SDS011;15917;50.014;8.352;2022-08-21T07:40:56;9.32;;;3.70;;
28760;SDS011;15917;50.014;8.352;2022-08-21T07:43:24;9.88;;;3.33;;
28760;SDS011;15917;50.014;8.352;2022-08-21T07:45:50;9.75;;;3.85;;
28760;SDS011;15917;50.014;8.352;2022-08-21T07:48:16;9.70;;;3.20;;
28760;SDS011;15917;50.014;8.352;2022-08-21T07:50:42;14.75;;;4.10;;
28760;SDS011;15917;50.014;8.352;2022-08-21T07:53:08;8.68;;;4.45;;
28760;SDS011;15917;50.014;8.352;2022-08-21T07:55:34;9.20;;;3.53;;
28760;SDS011;15917;50.014;8.352;2022-08-21T07:58:00;17.42;;;3.83;;
28760;SDS011;15917;50.014;8.352;2022-08-21T08:00:26;12.43;;;4.00;;
28760;SDS011;15917;50.014;8.352;2022-08-21T08:02:54;8.25;;;3.63;;
28760;SDS011;15917;50.014;8.352;2022-08-21T08:05:21;9.38;;;3.72;;
28760;SDS011;15917;50.014;8.352;2022-08-21T08:07:50;8.27;;;3.83;;
28760;SDS011;15917;50.014;8.352;2022-08-21T08:10:16;11.90;;;4.13;;
28760;SDS011;15917;50.014;8.352;2022-08-21T08:12:42;16.13;;;4.43;;
28760;SDS011;15917;50.014;8.352;2022-08-21T08:15:10;9.95;;;4.22;;
28760;SDS011;15917;50.014;8.352;2022-08-21T08:17:39;16.45;;;4.20;;
28760;SDS011;15917;50.014;8.352;2022-08-21T08:20:05;21.67;;;4.50;;
28760;SDS011;15917;50.014;8.352;2022-08-21T08:22:33;12.82;;;5.30;;
28760;SDS011;15917;50.014;8.352;2022-08-21T08:24:59;11.50;;;5.15;;
28760;SDS011;15917;50.014;8.352;2022-08-21T08:27:26;8.57;;;4.30;;
28760;SDS011;15917;50.014;8.352;2022-08-21T08:29:52;14.23;;;5.37;;
28760;SDS011;15917;50.014;8.352;2022-08-21T08:32:18;13.57;;;4.45;;
28760;SDS011;15917;50.014;8.352;2022-08-21T08:34:44;13.10;;;4.50;;
28760;SDS011;15917;50.014;8.352;2022-08-21T08:37:11;11.85;;;5.07;;
28760;SDS011;15917;50.014;8.352;2022-08-21T08:39:37;16.02;;;5.00;;
28760;SDS011;15917;50.014;8.352;2022-08-21T08:42:11;18.17;;;4.32;;
28760;SDS011;15917;50.014;8.352;2022-08-21T08:47:29;13.50;;;4.97;;
28760;SDS011;15917;50.014;8.352;2022-08-21T08:50:06;15.93;;;4.72;;
28760;SDS011;15917;50.014;8.352;2022-08-21T08:52:33;8.88;;;5.55;;
28760;SDS011;15917;50.014;8.352;2022-08-21T08:57:33;14.20;;;6.57;;
28760;SDS011;15917;50.014;8.352;2022-08-21T09:00:02;11.82;;;4.93;;
28760;SDS011;15917;50.014;8.352;2022-08-21T09:02:31;15.05;;;5.53;;
28760;SDS011;15917;50.014;8.352;2022-08-21T09:04:58;12.13;;;5.75;;
28760;SDS011;15917;50.014;8.352;2022-08-21T09:10:41;19.15;;;5.60;;
28760;SDS011;15917;50.014;8.352;2022-08-21T09:21:27;10.45;;;3.60;;
28760;SDS011;15917;50.014;8.352;2022-08-21T09:24:01;17.33;;;4.53;;
28760;SDS011;15917;50.014;8.352;2022-08-21T09:27:00;10.80;;;3.65;;
28760;SDS011;15917;50.014;8.352;2022-08-21T09:29:29;9.95;;;3.40;;
28760;SDS011;15917;50.014;8.352;2022-08-21T09:31:57;8.38;;;3.60;;
28760;SDS011;15917;50.014;8.352;2022-08-21T09:34:25;11.27;;;3.13;;
28760;SDS011;15917;50.014;8.352;2022-08-21T09:36:53;18.73;;;3.67;;
28760;SDS011;15917;50.014;8.352;2022-08-21T09:39:27;13.63;;;3.97;;
28760;SDS011;15917;50.014;8.352;2022-08-21T09:42:01;16.13;;;3.20;;
28760;SDS011;15917;50.014;8.352;2022-08-21T09:44:33;8.00;;;2.60;;
28760;SDS011;15917;50.014;8.352;2022-08-21T09:47:05;10.13;;;2.75;;
28760;SDS011;15917;50.014;8.352;2022-08-21T09:49:35;7.18;;;2.75;;
28760;SDS011;15917;50.014;8.352;2022-08-21T09:52:04;13.27;;;2.80;;
28760;SDS011;15917;50.014;8.352;2022-08-21T09:54:42;7.00;;;2.95;;
28760;SDS011;15917;50.014;8.352;2022-08-21T10:00:16;10.60;;;2.95;;
28760;SDS011;15917;50.014;8.352;2022-08-21T10:03:07;7.63;;;2.72;;
28760;SDS011;15917;50.014;8.352;2022-08-21T10:05:38;10.85;;;2.83;;
28760;SDS011;15917;50.014;8.352;2022-08-21T10:08:04;7.68;;;2.92;;
28760;SDS011;15917;50.014;8.352;2022-08-21T10:10:31;8.43;;;2.80;;
28760;SDS011;15917;50.014;8.352;2022-08-21T10:18:21;5.72;;;2.65;;
28760;SDS011;15917;50.014;8.352;2022-08-21T10:21:04;13.18;;;3.00;;
28760;SDS011;15917;50.014;8.352;2022-08-21T10:32:13;10.82;;;2.75;;
28760;SDS011;15917;50.014;8.352;2022-08-21T10:35:09;7.63;;;2.50;;
28760;SDS011;15917;50.014;8.352;2022-08-21T10:48:27;10.75;;;3.28;;
28760;SDS011;15917;50.014;8.352;2022-08-21T10:50:59;9.32;;;3.30;;
28760;SDS011;15917;50.014;8.352;2022-08-21T10:53:41;7.23;;;3.00;;
28760;SDS011;15917;50.014;8.352;2022-08-21T10:56:24;9.77;;;2.60;;
28760;SDS011;15917;50.014;8.352;2022-08-21T11:04:19;9.33;;;2.53;;
28760;SDS011;15917;50.014;8.352;2022-08-21T11:07:06;8.00;;;2.70;;
28760;SDS011;15917;50.014;8.352;2022-08-21T11:09:46;11.90;;;2.80;;
28760;SDS011;15917;50.014;8.352;2022-08-21T11:12:25;6.03;;;2.25;;
28760;SDS011;15917;50.014;8.352;2022-08-21T11:15:05;8.85;;;2.20;;
28760;SDS011;15917;50.014;8.352;2022-08-21T11:17:54;7.30;;;2.17;;
28760;SDS011;15917;50.014;8.352;2022-08-21T11:20:33;10.40;;;2.72;;
28760;SDS011;15917;50.014;8.352;2022-08-21T11:28:23;9.05;;;2.55;;
28760;SDS011;15917;50.014;8.352;2022-08-21T11:33:31;6.95;;;2.28;;
28760;SDS011;15917;50.014;8.352;2022-08-21T11:36:30;8.65;;;2.83;;
28760;SDS011;15917;50.014;8.352;2022-08-21T11:52:32;5.65;;;2.47;;
28760;SDS011;15917;50.014;8.352;2022-08-21T11:55:06;5.63;;;2.17;;
28760;SDS011;15917;50.014;8.352;2022-08-21T11:57:46;14.10;;;2.80;;
28760;SDS011;15917;50.014;8.352;2022-08-21T12:00:20;6.97;;;2.53;;
28760;SDS011;15917;50.014;8.352;2022-08-21T12:02:52;5.90;;;2.35;;
28760;SDS011;15917;50.014;8.352;2022-08-21T12:08:12;8.77;;;2.25;;
28760;SDS011;15917;50.014;8.352;2022-08-21T12:10:41;4.45;;;2.13;;
28760;SDS011;15917;50.014;8.352;2022-08-21T12:13:25;10.63;;;2.20;;
28760;SDS011;15917;50.014;8.352;2022-08-21T12:15:53;8.70;;;1.85;;
28760;SDS011;15917;50.014;8.352;2022-08-21T12:18:33;12.00;;;2.70;;
28760;SDS011;15917;50.014;8.352;2022-08-21T12:23:58;7.55;;;2.60;;
28760;SDS011;15917;50.014;8.352;2022-08-21T12:26:50;9.60;;;2.70;;
28760;SDS011;15917;50.014;8.352;2022-08-21T12:29:30;7.97;;;2.05;;
28760;SDS011;15917;50.014;8.352;2022-08-21T12:32:02;8.23;;;2.00;;
28760;SDS011;15917;50.014;8.352;2022-08-21T12:34:50;6.20;;;2.08;;
28760;SDS011;15917;50.014;8.352;2022-08-21T12:37:46;6.68;;;2.15;;
28760;SDS011;15917;50.014;8.352;2022-08-21T12:40:22;7.63;;;2.25;;
28760;SDS011;15917;50.014;8.352;2022-08-21T12:42:54;8.88;;;2.60;;
28760;SDS011;15917;50.014;8.352;2022-08-21T12:45:28;5.93;;;2.38;;
28760;SDS011;15917;50.014;8.352;2022-08-21T12:48:15;7.68;;;2.10;;
28760;SDS011;15917;50.014;8.352;2022-08-21T12:50:51;7.47;;;2.20;;
28760;SDS011;15917;50.014;8.352;2022-08-21T12:56:09;7.85;;;1.90;;
28760;SDS011;15917;50.014;8.352;2022-08-21T12:58:39;4.82;;;2.53;;
28760;SDS011;15917;50.014;8.352;2022-08-21T13:01:17;6.47;;;2.15;;
28760;SDS011;15917;50.014;8.352;2022-08-21T13:03:59;6.55;;;1.90;;
28760;SDS011;15917;50.014;8.352;2022-08-21T13:06:36;8.38;;;2.72;;
28760;SDS011;15917;50.014;8.352;2022-08-21T13:09:08;5.97;;;1.98;;
28760;SDS011;15917;50.014;8.352;2022-08-21T13:11:39;9.57;;;1.90;;
28760;SDS011;15917;50.014;8.352;2022-08-21T13:14:09;9.00;;;2.05;;
28760;SDS011;15917;50.014;8.352;2022-08-21T13:17:05;8.00;;;2.22;;
28760;SDS011;15917;50.014;8.352;2022-08-21T13:19:32;6.00;;;1.80;;
28760;SDS011;15917;50.014;8.352;2022-08-21T13:21:59;6.28;;;2.45;;
28760;SDS011;15917;50.014;8.352;2022-08-21T13:24:27;8.82;;;2.03;;
28760;SDS011;15917;50.014;8.352;2022-08-21T13:26:54;3.97;;;1.67;;
28760;SDS011;15917;50.014;8.352;2022-08-21T13:29:22;6.57;;;2.20;;
28760;SDS011;15917;50.014;8.352;2022-08-21T13:31:56;6.55;;;2.10;;
28760;SDS011;15917;50.014;8.352;2022-08-21T13:34:31;4.30;;;1.92;;
28760;SDS011;15917;50.014;8.352;2022-08-21T13:37:00;7.80;;;2.08;;
28760;SDS011;15917;50.014;8.352;2022-08-21T13:39:30;11.00;;;1.98;;
28760;SDS011;15917;50.014;8.352;2022-08-21T13:41:58;4.07;;;1.70;;
28760;SDS011;15917;50.014;8.352;2022-08-21T13:44:34;3.50;;;1.80;;
28760;SDS011;15917;50.014;8.352;2022-08-21T13:47:02;8.27;;;1.92;;
28760;SDS011;15917;50.014;8.352;2022-08-21T13:49:36;7.65;;;1.83;;
28760;SDS011;15917;50.014;8.352;2022-08-21T13:52:04;8.75;;;2.00;;
28760;SDS011;15917;50.014;8.352;2022-08-21T13:54:40;8.40;;;2.15;;
28760;SDS011;15917;50.014;8.352;2022-08-21T13:57:16;3.65;;;1.70;;
28760;SDS011;15917;50.014;8.352;2022-08-21T13:59:43;4.53;;;1.58;;
28760;SDS011;15917;50.014;8.352;2022-08-21T14:02:27;5.10;;;1.90;;
28760;SDS011;15917;50.014;8.352;2022-08-21T14:04:57;6.18;;;1.73;;
28760;SDS011;15917;50.014;8.352;2022-08-21T14:07:28;4.65;;;1.58;;
28760;SDS011;15917;50.014;8.352;2022-08-21T14:10:02;9.77;;;2.05;;
28760;SDS011;15917;50.014;8.352;2022-08-21T14:12:37;12.05;;;2.28;;
28760;SDS011;15917;50.014;8.352;2022-08-21T14:15:09;7.63;;;1.95;;
28760;SDS011;15917;50.014;8.352;2022-08-21T14:17:38;4.20;;;1.45;;
28760;SDS011;15917;50.014;8.352;2022-08-21T14:20:07;14.93;;;2.15;;
28760;SDS011;15917;50.014;8.352;2022-08-21T14:22:54;4.07;;;1.43;;
28760;SDS011;15917;50.014;8.352;2022-08-21T14:28:02;3.17;;;1.63;;
28760;SDS011;15917;50.014;8.352;2022-08-21T14:30:36;4.25;;;1.63;;
28760;SDS011;15917;50.014;8.352;2022-08-21T14:33:07;9.95;;;2.20;;
28760;SDS011;15917;50.014;8.352;2022-08-21T14:35:34;10.60;;;2.45;;
28760;SDS011;15917;50.014;8.352;2022-08-21T14:38:00;4.10;;;1.42;;
28760;SDS011;15917;50.014;8.352;2022-08-21T14:40:26;5.35;;;2.08;;
28760;SDS011;15917;50.014;8.352;2022-08-21T14:42:52;4.68;;;1.85;;
28760;SDS011;15917;50.014;8.352;2022-08-21T14:45:20;8.77;;;1.95;;
28760;SDS011;15917;50.014;8.352;2022-08-21T14:47:51;8.82;;;1.90;;
28760;SDS011;15917;50.014;8.352;2022-08-21T14:50:18;8.30;;;2.60;;
28760;SDS011;15917;50.014;8.352;2022-08-21T14:52:44;5.53;;;1.65;;
28760;SDS011;15917;50.014;8.352;2022-08-21T14:55:11;3.83;;;1.70;;
28760;SDS011;15917;50.014;8.352;2022-08-21T14:57:39;5.43;;;2.10;;
28760;SDS011;15917;50.014;8.352;2022-08-21T15:00:08;7.20;;;2.38;;
28760;SDS011;15917;50.014;8.352;2022-08-21T15:02:35;9.27;;;1.67;;
28760;SDS011;15917;50.014;8.352;2022-08-21T15:05:01;5.88;;;2.00;;
28760;SDS011;15917;50.014;8.352;2022-08-21T15:07:26;5.43;;;1.92;;
28760;SDS011;15917;50.014;8.352;2022-08-21T15:09:52;6.22;;;2.00;;
28760;SDS011;15917;50.014;8.352;2022-08-21T15:12:18;5.18;;;2.08;;
28760;SDS011;15917;50.014;8.352;2022-08-21T15:14:43;9.80;;;2.25;;
28760;SDS011;15917;50.014;8.352;2022-08-21T15:17:09;5.25;;;1.85;;
28760;SDS011;15917;50.014;8.352;2022-08-21T15:19:35;6.43;;;1.90;;
28760;SDS011;15917;50.014;8.352;2022-08-21T15:22:02;5.53;;;2.00;;
28760;SDS011;15917;50.014;8.352;2022-08-21T15:24:28;4.13;;;1.77;;
28760;SDS011;15917;50.014;8.352;2022-08-21T15:26:54;4.45;;;1.67;;
28760;SDS011;15917;50.014;8.352;2022-08-21T15:29:21;4.75;;;1.70;;
28760;SDS011;15917;50.014;8.352;2022-08-21T15:31:51;5.70;;;1.73;;
28760;SDS011;15917;50.014;8.352;2022-08-21T15:34:19;5.15;;;1.77;;
28760;SDS011;15917;50.014;8.352;2022-08-21T15:36:46;6.83;;;2.43;;
28760;SDS011;15917;50.014;8.352;2022-08-21T15:39:11;7.15;;;1.60;;
28760;SDS011;15917;50.014;8.352;2022-08-21T15:41:37;6.63;;;1.85;;
28760;SDS011;15917;50.014;8.352;2022-08-21T15:44:03;7.72;;;2.05;;
28760;SDS011;15917;50.014;8.352;2022-08-21T15:46:28;10.95;;;1.55;;
28760;SDS011;15917;50.014;8.352;2022-08-21T15:48:54;5.30;;;1.80;;
28760;SDS011;15917;50.014;8.352;2022-08-21T15:51:20;6.18;;;1.85;;
28760;SDS011;15917;50.014;8.352;2022-08-21T15:53:46;5.88;;;1.85;;
28760;SDS011;15917;50.014;8.352;2022-08-21T15:56:22;3.17;;;1.52;;
28760;SDS011;15917;50.014;8.352;2022-08-21T16:01:17;9.25;;;1.83;;
28760;SDS011;15917;50.014;8.352;2022-08-21T16:03:44;7.03;;;1.97;;
28760;SDS011;15917;50.014;8.352;2022-08-21T16:06:13;8.90;;;1.67;;
28760;SDS011;15917;50.014;8.352;2022-08-21T16:08:39;3.35;;;1.45;;
28760;SDS011;15917;50.014;8.352;2022-08-21T16:11:05;9.93;;;1.88;;
28760;SDS011;15917;50.014;8.352;2022-08-21T16:13:33;5.32;;;1.67;;
28760;SDS011;15917;50.014;8.352;2022-08-21T16:16:02;6.15;;;1.80;;
28760;SDS011;15917;50.014;8.352;2022-08-21T16:18:30;5.35;;;1.83;;
28760;SDS011;15917;50.014;8.352;2022-08-21T16:20:56;3.38;;;1.77;;
28760;SDS011;15917;50.014;8.352;2022-08-21T16:23:22;5.10;;;1.48;;
28760;SDS011;15917;50.014;8.352;2022-08-21T16:25:48;7.70;;;1.60;;
28760;SDS011;15917;50.014;8.352;2022-08-21T16:28:16;7.30;;;1.70;;
28760;SDS011;15917;50.014;8.352;2022-08-21T16:30:43;9.85;;;2.55;;